Fri Langesund — ZDKQ8 — position and weather

sailwx.info

Track history (hours):
 
Tides and Currents Weather Stations Pressure Air Temp Water Temp Dewpoint Dewpoint Depression Visibility Wind Speed Wind Dir Waves Ship Positions

Fri Langesund

Last reported at 2014-Aug-21 22:28 UTC. Time now 2014-Aug-23 11:25 UTC.
Position N 54°41' E 014°23'.

Length 90 m; draft 3.8 m.

Type: Cargo ship. MMSI: 236111779.

Date/timePositionNaut miles runAvg speedWind from/ knotsBaromVisibWave heightAir tempDewpointWater temp
2014-Aug-21 22:28N 54°41' E 014°23'1010.6
2014-Aug-21 21:33N 54°42' E 014°07'1110.5
2014-Aug-21 20:33N 54°43' E 013°48'1010.3
2014-Aug-21 19:33N 54°43' E 013°31'1110.5
2014-Aug-21 18:32N 54°42' E 013°12'1110.7
2014-Aug-21 17:33N 54°38' E 012°55'1110.7
2014-Aug-21 16:33N 54°34' E 012°38'1110.9
2014-Aug-21 15:33N 54°32' E 012°20'1110.6
2014-Aug-21 14:33N 54°23' E 012°08'1111.3
2014-Aug-21 13:33N 54°17' E 011°52'1410.7
2014-Aug-21 12:14N 54°09' E 011°33'6 8.1
2014-Aug-21 11:29N 54°05' E 011°24'0 0.0
2014-Aug-21 10:32N 54°05' E 011°24'6 5.7
2014-Aug-21 09:33N 54°00' E 011°20'7 7.4
2014-Aug-21 08:33N 53°54' E 011°28'0 0.0
2014-Aug-21 07:33N 53°54' E 011°28'0 0.0
2014-Aug-21 06:33N 53°54' E 011°28'0 0.0
2014-Aug-21 05:33N 53°54' E 011°28'0 0.0
2014-Aug-21 04:33N 53°54' E 011°28'0 0.0
2014-Aug-21 03:33N 53°54' E 011°28'0 0.0
2014-Aug-21 02:33N 53°54' E 011°28'0 0.0
2014-Aug-21 01:33N 53°54' E 011°28'0 0.0
2014-Aug-21 00:33N 53°54' E 011°28'0 0.0
2014-Aug-20 23:30N 53°54' E 011°28'0 0.0
2014-Aug-20 22:33N 53°54' E 011°28'0 0.0
2014-Aug-20 21:33N 53°54' E 011°28'0 0.0
2014-Aug-20 20:33N 53°54' E 011°28'0 0.0
2014-Aug-20 19:33N 53°54' E 011°28'0 0.0
2014-Aug-20 18:33N 53°54' E 011°28'0 0.0
2014-Aug-20 17:33N 53°54' E 011°28'0 0.0
2014-Aug-20 16:33N 53°54' E 011°28'0 0.0
2014-Aug-20 15:33N 53°54' E 011°28'0 0.0
2014-Aug-20 14:33N 53°54' E 011°28'0 0.0
2014-Aug-20 13:33N 53°54' E 011°28'0 0.0
2014-Aug-20 12:33N 53°54' E 011°28'0 0.0
2014-Aug-20 11:33N 53°54' E 011°28'0 0.0
2014-Aug-20 10:33N 53°54' E 011°28'0 0.0
2014-Aug-20 09:33N 53°54' E 011°28'0 0.0
2014-Aug-20 08:33N 53°54' E 011°28'0 0.0
2014-Aug-20 07:33N 53°54' E 011°28'0 0.0
2014-Aug-20 06:33N 53°54' E 011°28'0 0.0
2014-Aug-20 05:33N 53°54' E 011°28'0 0.0
2014-Aug-20 04:33N 53°54' E 011°28'0 0.0
2014-Aug-20 03:33N 53°54' E 011°28'0 0.0
2014-Aug-20 02:30N 53°54' E 011°28'0 0.0
2014-Aug-20 01:33N 53°54' E 011°28'0 0.0
2014-Aug-20 00:33N 53°54' E 011°28'0 0.0
2014-Aug-19 23:33N 53°54' E 011°28'0 0.0
2014-Aug-19 22:33N 53°54' E 011°28'0 0.0
2014-Aug-19 21:33N 53°54' E 011°28'0 0.0
2014-Aug-19 20:33N 53°54' E 011°28'0 0.0
2014-Aug-19 19:33N 53°54' E 011°28'0 0.0
2014-Aug-19 18:33N 53°54' E 011°28'0 0.0
2014-Aug-19 17:30N 53°54' E 011°28'0 0.0
2014-Aug-19 16:33N 53°54' E 011°28'0 0.0
2014-Aug-19 15:33N 53°54' E 011°28'0 0.0
2014-Aug-19 14:33N 53°54' E 011°28'0 0.0
2014-Aug-19 13:33N 53°54' E 011°28'0 0.0
2014-Aug-19 12:33N 53°54' E 011°28'0 0.0
2014-Aug-19 11:33N 53°54' E 011°28'0 0.0
2014-Aug-19 10:33N 53°54' E 011°28'0 0.0
2014-Aug-19 09:33N 53°54' E 011°28'0 0.0
2014-Aug-19 08:33N 53°54' E 011°28'0 0.0
2014-Aug-19 07:33N 53°54' E 011°28'0 0.0
2014-Aug-19 06:33N 53°54' E 011°28'0 0.0
2014-Aug-19 05:33N 53°54' E 011°28'0 0.0
2014-Aug-19 04:33N 53°54' E 011°28'0 0.0
2014-Aug-19 03:33N 53°54' E 011°28'0 0.0
2014-Aug-19 02:33N 53°54' E 011°28'1 1.2
2014-Aug-19 01:33N 53°55' E 011°26'7 7.1
2014-Aug-19 00:33N 54°02' E 011°23'142 7.7
2014-Aug-18 06:15N 56°23' E 011°04'19 7.0
2014-Aug-18 03:33N 56°42' E 011°00'68 7.5
2014-Aug-17 18:33N 57°47' E 010°26'1111.0
2014-Aug-17 17:33N 57°46' E 010°06'152 9.0
2014-Aug-17 00:33N 57°52' E 005°20'26410.1
2014-Aug-15 22:30N 58°43' W 002°52'1414.6
2014-Aug-15 21:31N 58°42' W 003°20'1010.6
2014-Aug-15 20:33N 58°41' W 003°40'1010.4
2014-Aug-15 19:33N 58°41' W 003°59'1010.2
2014-Aug-15 18:33N 58°40' W 004°19'53 8.7
2014-Aug-15 12:25N 58°11' W 005°44'910.5
2014-Aug-15 11:34N 58°03' W 005°54'106 3.2
2014-Aug-14 02:16N 56°18' W 005°46'8 8.2
2014-Aug-14 01:14N 56°11' W 005°54'25 6.5
2014-Aug-13 21:21N 55°46' W 006°02'5 5.7
2014-Aug-13 20:33N 55°42' W 005°59'6 5.6
2014-Aug-13 19:33N 55°36' W 005°57'6 5.9
2014-Aug-13 18:33N 55°30' W 005°55'6 6.3
2014-Aug-13 17:33N 55°24' W 005°53'8 7.8
2014-Aug-13 16:33N 55°16' W 005°50'9 8.7
2014-Aug-13 15:33N 55°09' W 005°42'16 7.9
2014-Aug-13 13:30N 54°56' W 005°25'8 8.6
2014-Aug-13 12:33N 54°49' W 005°17'7 7.4
2014-Aug-13 11:33N 54°43' W 005°09'7 6.6
2014-Aug-13 10:33N 54°38' W 005°02'5 4.9
2014-Aug-13 09:33N 54°37' W 004°54'9 4.6
2014-Aug-13 07:33N 54°32' W 004°40'30 7.4
2014-Aug-13 03:30N 54°17' W 003°56'8 7.8
2014-Aug-13 02:31N 54°13' W 003°45'8 7.8
2014-Aug-13 01:33N 54°08' W 003°35'8 8.0
2014-Aug-13 00:33N 54°03' W 003°24'7 7.3
2014-Aug-12 23:33N 54°01' W 003°12'5 4.6
2014-Aug-12 22:33N 54°06' W 003°13'0 0.1
2014-Aug-12 21:33N 54°06' W 003°13'0 0.2
2014-Aug-12 20:32N 54°06' W 003°14'0 0.0
2014-Aug-12 19:32N 54°06' W 003°14'0 0.0
2014-Aug-12 18:32N 54°06' W 003°14'0 0.0
2014-Aug-12 17:32N 54°06' W 003°14'0 0.0
2014-Aug-12 16:32N 54°06' W 003°14'0 0.0
2014-Aug-12 15:29N 54°06' W 003°14'0 0.0
2014-Aug-12 14:23N 54°06' W 003°14'0 0.0
2014-Aug-12 13:29N 54°06' W 003°14'0 0.0
2014-Aug-12 12:17N 54°06' W 003°14'0 0.0
2014-Aug-12 11:32N 54°06' W 003°14'0 0.0
2014-Aug-12 10:32N 54°06' W 003°14'0 0.0
2014-Aug-12 09:32N 54°06' W 003°14'0 0.0
2014-Aug-12 08:32N 54°06' W 003°14'0 0.0
2014-Aug-12 07:32N 54°06' W 003°14'0 0.0
2014-Aug-12 06:29N 54°06' W 003°14'0 0.0
2014-Aug-12 05:32N 54°06' W 003°14'0 0.0
2014-Aug-12 04:26N 54°06' W 003°14'0 0.0
2014-Aug-12 03:29N 54°06' W 003°14'0 0.0
2014-Aug-12 02:29N 54°06' W 003°14'0 0.0
2014-Aug-12 01:32N 54°06' W 003°14'0 0.0
2014-Aug-12 00:32N 54°06' W 003°14'0 0.0
2014-Aug-11 23:32N 54°06' W 003°14'0 0.0
2014-Aug-11 22:32N 54°06' W 003°14'  
Track history (hours):
 
Tides and Currents Weather Stations Pressure Air Temp Water Temp Dewpoint Dewpoint Depression Visibility Wind Speed Wind Dir Waves Ship Positions

Fri Langesund

Last reported at 2014-Aug-21 22:28 UTC. Time now 2014-Aug-23 11:25 UTC.
Position N 54°41' E 014°23'.

Length 90 m; draft 3.8 m.

Type: Cargo ship. MMSI: 236111779.

Date/timePositionNaut miles runAvg speedWind from/ knotsBaromVisibWave heightAir tempDewpointWater temp
2014-Aug-21 22:28N 54°41' E 014°23'1010.6
2014-Aug-21 21:33N 54°42' E 014°07'1110.5
2014-Aug-21 20:33N 54°43' E 013°48'1010.3
2014-Aug-21 19:33N 54°43' E 013°31'1110.5
2014-Aug-21 18:32N 54°42' E 013°12'1110.7
2014-Aug-21 17:33N 54°38' E 012°55'1110.7
2014-Aug-21 16:33N 54°34' E 012°38'1110.9
2014-Aug-21 15:33N 54°32' E 012°20'1110.6
2014-Aug-21 14:33N 54°23' E 012°08'1111.3
2014-Aug-21 13:33N 54°17' E 011°52'1410.7
2014-Aug-21 12:14N 54°09' E 011°33'6 8.1
2014-Aug-21 11:29N 54°05' E 011°24'0 0.0
2014-Aug-21 10:32N 54°05' E 011°24'6 5.7
2014-Aug-21 09:33N 54°00' E 011°20'7 7.4
2014-Aug-21 08:33N 53°54' E 011°28'0 0.0
2014-Aug-21 07:33N 53°54' E 011°28'0 0.0
2014-Aug-21 06:33N 53°54' E 011°28'0 0.0
2014-Aug-21 05:33N 53°54' E 011°28'0 0.0
2014-Aug-21 04:33N 53°54' E 011°28'0 0.0
2014-Aug-21 03:33N 53°54' E 011°28'0 0.0
2014-Aug-21 02:33N 53°54' E 011°28'0 0.0
2014-Aug-21 01:33N 53°54' E 011°28'0 0.0
2014-Aug-21 00:33N 53°54' E 011°28'0 0.0
2014-Aug-20 23:30N 53°54' E 011°28'0 0.0
2014-Aug-20 22:33N 53°54' E 011°28'0 0.0
2014-Aug-20 21:33N 53°54' E 011°28'0 0.0
2014-Aug-20 20:33N 53°54' E 011°28'0 0.0
2014-Aug-20 19:33N 53°54' E 011°28'0 0.0
2014-Aug-20 18:33N 53°54' E 011°28'0 0.0
2014-Aug-20 17:33N 53°54' E 011°28'0 0.0
2014-Aug-20 16:33N 53°54' E 011°28'0 0.0
2014-Aug-20 15:33N 53°54' E 011°28'0 0.0
2014-Aug-20 14:33N 53°54' E 011°28'0 0.0
2014-Aug-20 13:33N 53°54' E 011°28'0 0.0
2014-Aug-20 12:33N 53°54' E 011°28'0 0.0
2014-Aug-20 11:33N 53°54' E 011°28'0 0.0
2014-Aug-20 10:33N 53°54' E 011°28'0 0.0
2014-Aug-20 09:33N 53°54' E 011°28'0 0.0
2014-Aug-20 08:33N 53°54' E 011°28'0 0.0
2014-Aug-20 07:33N 53°54' E 011°28'0 0.0
2014-Aug-20 06:33N 53°54' E 011°28'0 0.0
2014-Aug-20 05:33N 53°54' E 011°28'0 0.0
2014-Aug-20 04:33N 53°54' E 011°28'0 0.0
2014-Aug-20 03:33N 53°54' E 011°28'0 0.0
2014-Aug-20 02:30N 53°54' E 011°28'0 0.0
2014-Aug-20 01:33N 53°54' E 011°28'0 0.0
2014-Aug-20 00:33N 53°54' E 011°28'0 0.0
2014-Aug-19 23:33N 53°54' E 011°28'0 0.0
2014-Aug-19 22:33N 53°54' E 011°28'0 0.0
2014-Aug-19 21:33N 53°54' E 011°28'0 0.0
2014-Aug-19 20:33N 53°54' E 011°28'0 0.0
2014-Aug-19 19:33N 53°54' E 011°28'0 0.0
2014-Aug-19 18:33N 53°54' E 011°28'0 0.0
2014-Aug-19 17:30N 53°54' E 011°28'0 0.0
2014-Aug-19 16:33N 53°54' E 011°28'0 0.0
2014-Aug-19 15:33N 53°54' E 011°28'0 0.0
2014-Aug-19 14:33N 53°54' E 011°28'0 0.0
2014-Aug-19 13:33N 53°54' E 011°28'0 0.0
2014-Aug-19 12:33N 53°54' E 011°28'0 0.0
2014-Aug-19 11:33N 53°54' E 011°28'0 0.0
2014-Aug-19 10:33N 53°54' E 011°28'0 0.0
2014-Aug-19 09:33N 53°54' E 011°28'0 0.0
2014-Aug-19 08:33N 53°54' E 011°28'0 0.0
2014-Aug-19 07:33N 53°54' E 011°28'0 0.0
2014-Aug-19 06:33N 53°54' E 011°28'0 0.0
2014-Aug-19 05:33N 53°54' E 011°28'0 0.0
2014-Aug-19 04:33N 53°54' E 011°28'0 0.0
2014-Aug-19 03:33N 53°54' E 011°28'0 0.0
2014-Aug-19 02:33N 53°54' E 011°28'1 1.2
2014-Aug-19 01:33N 53°55' E 011°26'7 7.1
2014-Aug-19 00:33N 54°02' E 011°23'142 7.7
2014-Aug-18 06:15N 56°23' E 011°04'19 7.0
2014-Aug-18 03:33N 56°42' E 011°00'68 7.5
2014-Aug-17 18:33N 57°47' E 010°26'1111.0
2014-Aug-17 17:33N 57°46' E 010°06'152 9.0
2014-Aug-17 00:33N 57°52' E 005°20'26410.1
2014-Aug-15 22:30N 58°43' W 002°52'1414.6
2014-Aug-15 21:31N 58°42' W 003°20'1010.6
2014-Aug-15 20:33N 58°41' W 003°40'1010.4
2014-Aug-15 19:33N 58°41' W 003°59'1010.2
2014-Aug-15 18:33N 58°40' W 004°19'53 8.7
2014-Aug-15 12:25N 58°11' W 005°44'910.5
2014-Aug-15 11:34N 58°03' W 005°54'106 3.2
2014-Aug-14 02:16N 56°18' W 005°46'8 8.2
2014-Aug-14 01:14N 56°11' W 005°54'25 6.5
2014-Aug-13 21:21N 55°46' W 006°02'5 5.7
2014-Aug-13 20:33N 55°42' W 005°59'6 5.6
2014-Aug-13 19:33N 55°36' W 005°57'6 5.9
2014-Aug-13 18:33N 55°30' W 005°55'6 6.3
2014-Aug-13 17:33N 55°24' W 005°53'8 7.8
2014-Aug-13 16:33N 55°16' W 005°50'9 8.7
2014-Aug-13 15:33N 55°09' W 005°42'16 7.9
2014-Aug-13 13:30N 54°56' W 005°25'8 8.6
2014-Aug-13 12:33N 54°49' W 005°17'7 7.4
2014-Aug-13 11:33N 54°43' W 005°09'7 6.6
2014-Aug-13 10:33N 54°38' W 005°02'5 4.9
2014-Aug-13 09:33N 54°37' W 004°54'9 4.6
2014-Aug-13 07:33N 54°32' W 004°40'30 7.4
2014-Aug-13 03:30N 54°17' W 003°56'8 7.8
2014-Aug-13 02:31N 54°13' W 003°45'8 7.8
2014-Aug-13 01:33N 54°08' W 003°35'8 8.0
2014-Aug-13 00:33N 54°03' W 003°24'7 7.3
2014-Aug-12 23:33N 54°01' W 003°12'5 4.6
2014-Aug-12 22:33N 54°06' W 003°13'0 0.1
2014-Aug-12 21:33N 54°06' W 003°13'0 0.2
2014-Aug-12 20:32N 54°06' W 003°14'0 0.0
2014-Aug-12 19:32N 54°06' W 003°14'0 0.0
2014-Aug-12 18:32N 54°06' W 003°14'0 0.0
2014-Aug-12 17:32N 54°06' W 003°14'0 0.0
2014-Aug-12 16:32N 54°06' W 003°14'0 0.0
2014-Aug-12 15:29N 54°06' W 003°14'0 0.0
2014-Aug-12 14:23N 54°06' W 003°14'0 0.0
2014-Aug-12 13:29N 54°06' W 003°14'0 0.0
2014-Aug-12 12:17N 54°06' W 003°14'0 0.0
2014-Aug-12 11:32N 54°06' W 003°14'0 0.0
2014-Aug-12 10:32N 54°06' W 003°14'0 0.0
2014-Aug-12 09:32N 54°06' W 003°14'0 0.0
2014-Aug-12 08:32N 54°06' W 003°14'0 0.0
2014-Aug-12 07:32N 54°06' W 003°14'0 0.0
2014-Aug-12 06:29N 54°06' W 003°14'0 0.0
2014-Aug-12 05:32N 54°06' W 003°14'0 0.0
2014-Aug-12 04:26N 54°06' W 003°14'0 0.0
2014-Aug-12 03:29N 54°06' W 003°14'0 0.0
2014-Aug-12 02:29N 54°06' W 003°14'0 0.0
2014-Aug-12 01:32N 54°06' W 003°14'0 0.0
2014-Aug-12 00:32N 54°06' W 003°14'0 0.0
2014-Aug-11 23:32N 54°06' W 003°14'0 0.0
2014-Aug-11 22:32N 54°06' W 003°14'  

Dump ship's entire track history